Time;durP1;ratioP1;P1;durP2;ratioP2;P2;SDS_P1;SDS_P2;PMS_P1;PMS_P2;Temp;Humidity;BMP_temperature;BMP_pressure;BME280_temperature;BME280_humidity;BME280_pressure;Samples;Min_cycle;Max_cycle;Signal;HPM_P1;HPM_P2
2022/10/01 00:01:59;;;;;;;5.65;5.15;;;;;;;10.26;98.56;100318.25;4956138;28;20052;-77
2022/10/01 00:04:27;;;;;;;6.32;4.78;;;;;;;10.25;98.70;100322.06;4956228;28;20058;-77
2022/10/01 00:06:53;;;;;;;5.40;5.00;;;;;;;10.24;98.34;100314.53;4956014;28;20124;-77
2022/10/01 00:09:20;;;;;;;6.10;5.60;;;;;;;10.21;98.95;100296.81;4956108;28;20131;-78
2022/10/01 00:11:46;;;;;;;6.47;5.80;;;;;;;10.22;99.55;100290.31;4955983;28;20128;-77
2022/10/01 00:14:12;;;;;;;6.22;5.72;;;;;;;10.20;99.29;100288.09;4956292;28;20050;-78
2022/10/01 00:16:39;;;;;;;5.95;5.55;;;;;;;10.20;98.86;100282.78;4956303;28;20054;-77
2022/10/01 00:19:05;;;;;;;6.70;5.90;;;;;;;10.20;99.85;100288.09;4955406;28;20048;-77
2022/10/01 00:21:32;;;;;;;6.82;5.63;;;;;;;10.20;99.72;100284.69;4956393;28;20044;-77
2022/10/01 00:24:03;;;;;;;6.25;5.75;;;;;;;10.18;99.81;100274.47;4955848;28;20126;-77
2022/10/01 00:26:32;;;;;;;5.93;5.32;;;;;;;10.17;99.48;100261.63;4956584;28;20564;-77
2022/10/01 00:29:03;;;;;;;5.90;5.38;;;;;;;10.16;99.62;100258.22;4955530;28;20087;-77
2022/10/01 00:31:29;;;;;;;6.03;5.63;;;;;;;10.15;100.00;100254.09;4956220;28;20122;-77
2022/10/01 00:33:59;;;;;;;7.20;5.28;;;;;;;10.14;99.94;100249.22;4955321;28;20491;-77
2022/10/01 00:36:26;;;;;;;6.78;5.57;;;;;;;10.14;99.51;100243.91;4955798;28;20062;-77
2022/10/01 00:38:52;;;;;;;7.18;5.05;;;;;;;10.12;99.34;100231.03;4955907;28;20043;-77
2022/10/01 00:41:19;;;;;;;6.38;5.75;;;;;;;10.11;100.00;100197.66;4955821;28;20063;-77
2022/10/01 00:43:56;;;;;;;5.68;5.18;;;;;;;10.11;99.38;100191.59;4955879;28;20099;-78
2022/10/01 00:46:28;;;;;;;5.85;5.35;;;;;;;10.11;99.50;100187.03;4956007;28;20040;-77
2022/10/01 00:49:03;;;;;;;6.28;4.63;;;;;;;10.09;99.87;100173.44;4954962;28;20051;-77
2022/10/01 00:51:32;;;;;;;6.40;5.90;;;;;;;10.09;100.00;100170.78;4956045;28;20143;-77
2022/10/01 00:54:07;;;;;;;6.28;5.78;;;;;;;10.10;100.00;100160.88;4955166;28;20051;-77
2022/10/01 00:56:33;;;;;;;6.00;5.47;;;;;;;10.08;100.00;100148.03;4955887;28;20071;-77
2022/10/01 00:59:01;;;;;;;6.35;5.75;;;;;;;10.09;100.00;100154.06;4955440;28;20485;-77
2022/10/01 01:01:27;;;;;;;5.38;4.97;;;;;;;10.09;100.00;100157.47;4954037;28;20147;-77
2022/10/01 01:03:55;;;;;;;7.82;5.30;;;;;;;10.10;100.00;100153.63;4954760;28;20039;-77
2022/10/01 01:06:21;;;;;;;5.32;4.93;;;;;;;10.11;100.00;100146.38;4955444;28;20044;-78
2022/10/01 01:08:53;;;;;;;6.55;5.22;;;;;;;10.12;100.00;100145.19;4955232;28;20306;-77
2022/10/01 01:11:52;;;;;;;5.68;4.95;;;;;;;10.12;100.00;100145.94;4955743;28;20131;-77
2022/10/01 01:14:30;;;;;;;4.88;4.57;;;;;;;10.13;100.00;100149.34;4937998;28;20130;-77
2022/10/01 01:17:07;;;;;;;5.05;4.55;;;;;;;10.13;100.00;100155.38;4954746;28;20505;-78
2022/10/01 01:20:04;;;;;;;4.57;4.28;;;;;;;10.13;100.00;100139.44;4955529;28;20058;-78
2022/10/01 01:22:36;;;;;;;6.40;4.22;;;;;;;10.15;100.00;100125.69;4954657;28;20050;-78
2022/10/01 01:25:16;;;;;;;4.22;3.90;;;;;;;10.14;100.00;100114.31;4955266;28;20048;-77
2022/10/01 01:28:30;;;;;;;4.10;3.88;;;;;;;10.14;100.00;100113.56;4955391;28;20697;-77
2022/10/01 01:31:06;;;;;;;4.20;3.90;;;;;;;10.13;100.00;100088.91;4913884;29;20065;-77
2022/10/01 01:33:36;;;;;;;3.95;3.65;;;;;;;10.14;100.00;100086.97;4914610;29;20547;-77
2022/10/01 01:36:12;;;;;;;3.90;3.60;;;;;;;10.14;100.00;100076.34;4914271;29;20486;-77
2022/10/01 01:38:45;;;;;;;3.90;3.60;;;;;;;10.15;100.00;100065.25;4914654;29;20140;-77
2022/10/01 01:41:14;;;;;;;3.92;3.63;;;;;;;10.16;100.00;100069.38;4914430;29;20585;-77
2022/10/01 01:43:45;;;;;;;3.88;3.58;;;;;;;10.16;100.00;100050.75;4914434;29;20078;-77
2022/10/01 01:46:16;;;;;;;4.18;3.88;;;;;;;10.15;100.00;100062.59;4914111;29;20060;-77
2022/10/01 01:48:46;;;;;;;3.70;3.50;;;;;;;10.16;100.00;100058.75;4914703;29;20497;-77
2022/10/01 01:51:37;;;;;;;3.83;3.53;;;;;;;10.17;100.00;100046.91;4914035;29;20178;-77
2022/10/01 01:54:03;;;;;;;3.90;3.65;;;;;;;10.17;100.00;100054.91;4914163;29;20065;-77
2022/10/01 01:56:30;;;;;;;4.70;4.07;;;;;;;10.19;100.00;100051.78;4914400;29;20048;-77
2022/10/01 01:58:59;;;;;;;5.07;3.20;;;;;;;10.20;100.00;100055.94;4913802;29;20145;-76
2022/10/01 02:01:42;;;;;;;3.83;3.33;;;;;;;10.19;100.00;100044.56;4913813;29;20132;-77
2022/10/01 02:04:18;;;;;;;3.80;3.50;;;;;;;10.20;100.00;100054.03;4914065;29;20166;-77
2022/10/01 02:07:02;;;;;;;2.55;2.35;;;;;;;10.20;100.00;100059.34;4940917;28;20131;-77
2022/10/01 02:09:36;;;;;;;3.35;3.15;;;;;;;10.22;100.00;100064.22;4954723;28;20139;-78
2022/10/01 02:12:29;;;;;;;2.95;2.75;;;;;;;10.22;100.00;100062.28;4954293;28;20103;-77
2022/10/01 02:15:02;;;;;;;3.47;2.88;;;;;;;10.23;100.00;100065.69;4954125;28;20560;-77
2022/10/01 02:17:56;;;;;;;3.08;2.88;;;;;;;10.23;100.00;100066.41;4954746;28;20123;-77
2022/10/01 02:20:29;;;;;;;3.30;2.72;;;;;;;10.25;100.00;100061.38;4954463;28;20128;-78
2022/10/01 02:23:02;;;;;;;2.92;2.72;;;;;;;10.26;100.00;100054.88;4954386;28;20564;-77
2022/10/01 02:25:36;;;;;;;3.10;3.00;;;;;;;10.26;100.00;100054.88;4954404;28;20058;-77
2022/10/01 02:28:09;;;;;;;2.72;2.55;;;;;;;10.26;100.00;100052.22;4954384;28;20138;-77
2022/10/01 02:30:38;;;;;;;2.47;2.38;;;;;;;10.28;100.00;100062.41;4954193;28;20055;-77
2022/10/01 02:33:08;;;;;;;2.60;2.40;;;;;;;10.28;100.00;100049.09;4953552;28;20135;-77
2022/10/01 02:35:36;;;;;;;2.30;2.20;;;;;;;10.28;100.00;100055.16;4956650;28;20501;-77
2022/10/01 02:38:06;;;;;;;2.60;2.40;;;;;;;10.29;100.00;100059.28;4957078;28;20051;-77
2022/10/01 02:40:36;;;;;;;3.63;2.25;;;;;;;10.30;100.00;100054.72;4956572;28;20510;-77
2022/10/01 02:43:09;;;;;;;1.77;1.67;;;;;;;10.30;100.00;100039.47;4957500;28;20290;-77
2022/10/01 02:45:39;;;;;;;1.70;1.60;;;;;;;10.32;100.00;100050.41;4957757;28;20123;-77
2022/10/01 02:48:10;;;;;;;1.83;1.73;;;;;;;10.34;100.00;100053.34;4957021;28;20328;-78
2022/10/01 02:50:47;;;;;;;2.03;1.40;;;;;;;10.33;100.00;100033.25;4957800;28;20048;-77
2022/10/01 02:53:41;;;;;;;3.20;1.80;;;;;;;10.34;100.00;100045.38;4957355;28;20044;-77
2022/10/01 02:56:10;;;;;;;1.85;1.75;;;;;;;10.36;100.00;100044.91;4952945;28;20461;-77
2022/10/01 02:58:36;;;;;;;1.73;1.63;;;;;;;10.38;100.00;100036.47;4957059;28;20046;-77
2022/10/01 03:01:02;;;;;;;1.45;1.45;;;;;;;10.38;100.00;100042.53;4957229;28;20521;-77
2022/10/01 03:03:31;;;;;;;1.80;1.70;;;;;;;10.39;100.00;100054.66;4957518;28;20054;-78
2022/10/01 03:05:57;;;;;;;3.63;1.60;;;;;;;10.39;100.00;100041.34;4957006;28;20079;-78
2022/10/01 03:08:24;;;;;;;1.75;1.65;;;;;;;10.42;100.00;100052.97;4955507;28;20091;-78
2022/10/01 03:10:50;;;;;;;2.10;1.90;;;;;;;10.44;100.00;100039.97;4957289;28;20079;-78
2022/10/01 03:13:18;;;;;;;1.73;1.63;;;;;;;10.44;100.00;100029.31;4956796;28;20048;-78
2022/10/01 03:15:45;;;;;;;1.90;1.80;;;;;;;10.45;100.00;100017.47;4957277;28;20122;-78
2022/10/01 03:18:12;;;;;;;2.08;1.92;;;;;;;10.47;100.00;100013.19;4957143;28;20401;-77
2022/10/01 03:20:38;;;;;;;1.67;1.58;;;;;;;10.49;100.00;100008.13;4957107;28;20127;-78
2022/10/01 03:23:05;;;;;;;2.97;1.88;;;;;;;10.50;100.00;100014.94;4956482;28;20143;-80
2022/10/01 03:25:31;;;;;;;1.55;1.48;;;;;;;10.52;100.00;100014.47;4957327;28;20556;-78
2022/10/01 03:27:57;;;;;;;1.95;1.85;;;;;;;10.54;100.00;100001.44;4956614;28;20056;-78
2022/10/01 03:30:25;;;;;;;2.08;1.98;;;;;;;10.55;100.00;100008.25;4957213;28;20047;-78
2022/10/01 03:32:52;;;;;;;3.38;1.90;;;;;;;10.56;100.00;100007.06;4956667;28;20596;-78
2022/10/01 03:35:19;;;;;;;1.92;1.80;;;;;;;10.57;100.00;99995.97;4956930;28;20123;-78
2022/10/01 03:37:46;;;;;;;1.88;1.77;;;;;;;10.59;100.00;99998.16;4954963;28;20100;-78
2022/10/01 03:40:12;;;;;;;3.88;2.10;;;;;;;10.61;100.00;100006.44;4956900;28;20067;-78
2022/10/01 03:42:39;;;;;;;2.03;1.92;;;;;;;10.62;100.00;99997.97;4956346;28;20048;-78
2022/10/01 03:45:06;;;;;;;2.30;2.20;;;;;;;10.64;100.00;99997.53;4956163;28;20050;-78
2022/10/01 03:47:33;;;;;;;2.30;2.20;;;;;;;10.66;100.00;99997.81;4956899;28;20059;-78
2022/10/01 03:49:59;;;;;;;1.92;1.83;;;;;;;10.67;100.00;100002.69;4956302;28;20493;-78
2022/10/01 03:52:25;;;;;;;2.47;2.30;;;;;;;10.69;100.00;100002.22;4956972;28;20046;-78
2022/10/01 03:54:52;;;;;;;2.30;2.20;;;;;;;10.70;100.00;100009.00;4956621;28;20040;-78
2022/10/01 03:57:18;;;;;;;2.40;2.30;;;;;;;10.71;100.00;99988.44;4956231;28;20126;-78
2022/10/01 03:59:45;;;;;;;2.72;2.55;;;;;;;10.73;100.00;100002.78;4956592;28;20130;-78
2022/10/01 04:02:11;;;;;;;2.40;2.20;;;;;;;10.73;100.00;100002.78;4956690;28;20557;-77
2022/10/01 04:04:38;;;;;;;2.78;2.60;;;;;;;10.77;100.00;100010.59;4956446;28;20051;-78
2022/10/01 04:07:04;;;;;;;2.97;2.88;;;;;;;10.77;100.00;100005.25;4956107;28;20047;-78
2022/10/01 04:09:31;;;;;;;3.38;3.03;;;;;;;10.79;100.00;100011.59;4956691;28;20536;-78
2022/10/01 04:11:58;;;;;;;2.78;2.60;;;;;;;10.81;100.00;100008.44;4954383;28;20135;-78
2022/10/01 04:14:24;;;;;;;2.97;2.88;;;;;;;10.82;100.00;100012.59;4955228;28;20048;-78
2022/10/01 04:16:51;;;;;;;2.85;2.65;;;;;;;10.83;100.00;100014.06;4956336;28;20040;-78
2022/10/01 04:19:18;;;;;;;3.33;3.13;;;;;;;10.85;100.00;100011.69;4955983;28;20103;-78
2022/10/01 04:21:45;;;;;;;2.92;2.78;;;;;;;10.86;100.00;100016.53;4956394;28;20111;-78
2022/10/01 04:24:11;;;;;;;3.42;3.20;;;;;;;10.87;100.00;100022.59;4954857;28;20106;-78
2022/10/01 04:26:38;;;;;;;3.65;3.45;;;;;;;10.89;100.00;100023.63;4955600;28;20556;-78
2022/10/01 04:29:04;;;;;;;3.40;3.20;;;;;;;10.90;100.00;100027.00;4954403;28;20135;-78
2022/10/01 04:31:33;;;;;;;8.55;3.45;;;;;;;10.92;100.00;100045.94;4956173;28;20420;-78
2022/10/01 04:34:00;;;;;;;4.00;3.80;;;;;;;10.93;100.00;100042.06;4954658;28;20051;-78
2022/10/01 04:36:27;;;;;;;4.43;4.22;;;;;;;10.94;100.00;100044.28;4954510;28;20083;-78
2022/10/01 04:38:55;;;;;;;5.07;3.75;;;;;;;10.96;100.00;100041.91;4955835;28;20119;-78
2022/10/01 04:41:29;;;;;;;4.57;4.38;;;;;;;10.96;100.00;100047.22;4955750;28;20485;-78
2022/10/01 04:43:58;;;;;;;4.75;4.45;;;;;;;10.97;100.00;100056.69;4955538;28;20107;-78
2022/10/01 04:46:24;;;;;;;4.30;4.10;;;;;;;11.00;100.00;100060.38;4955354;28;20497;-78
2022/10/01 04:48:51;;;;;;;4.72;4.43;;;;;;;11.02;100.00;100069.38;4955599;28;20062;-78
2022/10/01 04:51:17;;;;;;;6.82;5.03;;;;;;;11.04;100.00;100071.56;4955676;28;20115;-78
2022/10/01 04:53:43;;;;;;;4.70;4.40;;;;;;;11.09;100.00;100083.53;4955254;28;20099;-78
2022/10/01 04:56:10;;;;;;;4.90;4.57;;;;;;;11.10;100.00;100080.41;4955467;28;20579;-79
2022/10/01 04:58:37;;;;;;;4.88;4.43;;;;;;;11.12;100.00;100077.28;4954751;28;20052;-79
2022/10/01 05:01:03;;;;;;;7.70;4.57;;;;;;;11.12;100.00;100078.00;4955060;28;20473;-79
2022/10/01 05:03:30;;;;;;;5.10;4.60;;;;;;;11.14;100.00;100083.63;4955328;28;20052;-78
2022/10/01 05:05:57;;;;;;;5.35;5.05;;;;;;;11.18;100.00;100083.44;4955290;28;20043;-79
2022/10/01 05:08:23;;;;;;;5.18;4.68;;;;;;;11.19;100.00;100095.56;4954889;28;20058;-78
2022/10/01 05:10:49;;;;;;;8.18;5.60;;;;;;;11.21;100.00;100095.81;4955357;28;20040;-79
2022/10/01 05:13:16;;;;;;;5.50;5.10;;;;;;;11.22;100.00;100099.94;4953799;28;20159;-78
2022/10/01 05:15:43;;;;;;;5.90;5.47;;;;;;;11.22;100.00;100103.34;4955263;28;20123;-78
2022/10/01 05:18:10;;;;;;;6.15;5.22;;;;;;;11.21;100.00;100109.13;4954944;28;20527;-79
2022/10/01 05:20:37;;;;;;;5.53;5.13;;;;;;;11.22;100.00;100111.34;4955592;28;20108;-78
2022/10/01 05:23:03;;;;;;;5.38;5.05;;;;;;;11.22;100.00;100118.59;4954414;28;20075;-78
2022/10/01 05:25:30;;;;;;;5.55;5.25;;;;;;;11.22;100.00;100110.59;4955305;28;20139;-78
2022/10/01 05:28:03;;;;;;;5.53;5.13;;;;;;;11.25;100.00;100125.69;4954905;28;20056;-78
2022/10/01 05:30:31;;;;;;;5.88;5.47;;;;;;;11.26;100.00;100124.50;4955412;28;20512;-78
2022/10/01 05:33:00;;;;;;;5.70;5.30;;;;;;;11.26;100.00;100130.56;4954763;28;20079;-78
2022/10/01 05:35:27;;;;;;;6.45;5.85;;;;;;;11.29;100.00;100139.56;4955041;28;20419;-78
2022/10/01 05:37:55;;;;;;;7.40;5.80;;;;;;;11.29;100.00;100142.22;4954083;28;20142;-78
2022/10/01 05:40:24;;;;;;;5.68;5.18;;;;;;;11.28;100.00;100146.81;4954825;28;20569;-78
2022/10/01 05:42:50;;;;;;;6.20;5.75;;;;;;;11.28;100.00;100146.81;4954591;28;20135;-79
2022/10/01 05:45:19;;;;;;;5.95;5.60;;;;;;;11.28;100.00;100154.06;4954933;28;20126;-78
2022/10/01 05:47:46;;;;;;;5.80;5.40;;;;;;;11.25;100.00;100158.38;4954657;28;20465;-78
2022/10/01 05:50:13;;;;;;;6.90;5.90;;;;;;;11.21;100.00;100167.75;4954773;28;20488;-78
2022/10/01 05:52:47;;;;;;;5.60;5.22;;;;;;;11.21;100.00;100162.41;4954249;28;20115;-78
2022/10/01 05:55:14;;;;;;;5.30;4.90;;;;;;;11.21;100.00;100163.16;4954747;28;20052;-78
2022/10/01 05:57:40;;;;;;;6.22;5.63;;;;;;;11.20;100.00;100167.00;4954970;28;20167;-78
2022/10/01 06:00:07;;;;;;;6.78;6.18;;;;;;;11.19;100.00;100175.50;4953352;28;20074;-78
2022/10/01 06:02:37;;;;;;;5.90;5.43;;;;;;;11.16;100.00;100177.13;4953698;28;20051;-78
2022/10/01 06:05:04;;;;;;;5.82;5.32;;;;;;;11.14;100.00;100174.19;4953044;28;20046;-78
2022/10/01 06:07:30;;;;;;;5.68;5.30;;;;;;;11.14;100.00;100179.53;4954280;28;20122;-78
2022/10/01 06:09:57;;;;;;;6.05;5.63;;;;;;;11.15;100.00;100183.66;4954073;28;20058;-78
2022/10/01 06:12:24;;;;;;;5.68;5.38;;;;;;;11.16;100.00;100187.06;4954680;28;20069;-78
2022/10/01 06:14:50;;;;;;;5.72;5.22;;;;;;;11.18;100.00;100179.34;4954327;28;20044;-80
2022/10/01 06:17:16;;;;;;;6.47;5.93;;;;;;;11.21;100.00;100183.72;4954721;28;20134;-80
2022/10/01 06:19:43;;;;;;;6.28;5.90;;;;;;;11.24;100.00;100188.88;4954483;28;20147;-78
2022/10/01 06:22:09;;;;;;;6.53;6.03;;;;;;;11.28;100.00;100191.38;4953362;28;20138;-77
2022/10/01 06:24:36;;;;;;;8.70;5.10;;;;;;;11.32;100.00;100187.34;4954613;28;20123;-81
2022/10/01 06:27:02;;;;;;;5.93;5.38;;;;;;;11.36;100.00;100187.91;4954032;28;20130;-79
2022/10/01 06:29:29;;;;;;;8.88;5.95;;;;;;;11.41;100.00;100186.53;4952927;28;20511;-81
2022/10/01 06:31:55;;;;;;;6.85;5.80;;;;;;;11.46;100.00;100188.56;4954277;28;20052;-78
2022/10/01 06:34:22;;;;;;;7.82;5.78;;;;;;;11.50;100.00;100188.38;4953669;28;20510;-80
2022/10/01 06:36:48;;;;;;;5.85;5.35;;;;;;;11.55;100.00;100191.16;4953781;28;20059;-79
2022/10/01 06:39:15;;;;;;;6.25;5.70;;;;;;;11.79;100.00;100191.09;4955064;28;20547;-79
2022/10/01 06:41:42;;;;;;;6.20;5.70;;;;;;;12.20;100.00;100196.56;4954819;28;20052;-79
2022/10/01 06:44:13;;;;;;;6.72;6.13;;;;;;;12.43;100.00;100198.34;4954997;28;20449;-79
2022/10/01 06:46:40;;;;;;;5.60;5.10;;;;;;;12.32;100.00;100193.59;4954304;28;20043;-78
2022/10/01 06:49:06;;;;;;;5.53;5.07;;;;;;;12.21;100.00;100185.41;4953237;28;20511;-79
2022/10/01 06:54:18;;;;;;;6.47;5.13;;;;;;;12.23;100.00;100201.72;4954548;28;20530;-79
2022/10/01 06:56:44;;;;;;;6.45;5.22;;;;;;;12.28;100.00;100208.31;4954225;28;20130;-79
2022/10/01 06:59:10;;;;;;;5.63;5.18;;;;;;;12.34;100.00;100206.47;4954126;28;20044;-79
2022/10/01 07:01:37;;;;;;;5.28;4.88;;;;;;;12.41;100.00;100205.34;4953831;28;20500;-81
2022/10/01 07:04:04;;;;;;;6.38;5.25;;;;;;;12.46;100.00;100204.69;4954340;28;20047;-80
2022/10/01 07:06:31;;;;;;;5.13;4.68;;;;;;;12.55;100.00;100207.97;4954039;28;20044;-81
2022/10/01 07:08:57;;;;;;;5.07;4.78;;;;;;;12.66;100.00;100210.06;4954468;28;20114;-80
2022/10/01 07:11:26;;;;;;;8.30;4.97;;;;;;;12.76;100.00;100219.44;4954512;28;20052;-81
2022/10/01 07:13:52;;;;;;;6.10;5.05;;;;;;;12.90;100.00;100225.88;4954327;28;20350;-80
2022/10/01 07:16:20;;;;;;;5.50;5.10;;;;;;;13.00;100.00;100225.28;4954160;28;20131;-80
2022/10/01 07:18:46;;;;;;;6.25;5.25;;;;;;;13.17;100.00;100240.84;4954105;28;20087;-78
2022/10/01 07:21:13;;;;;;;6.18;4.95;;;;;;;13.25;100.00;100236.53;4954365;28;20538;-77
2022/10/01 07:23:39;;;;;;;6.88;5.05;;;;;;;13.25;100.00;100255.25;4957550;28;20086;-80
2022/10/01 07:26:08;;;;;;;5.50;5.10;;;;;;;13.30;100.00;100251.91;4957845;28;20122;-80
2022/10/01 07:28:34;;;;;;;6.50;4.43;;;;;;;13.34;100.00;100255.09;4957242;28;20059;-78
2022/10/01 07:31:10;;;;;;;4.57;4.20;;;;;;;13.37;100.00;100259.50;4957530;28;20176;-79
2022/10/01 07:33:38;;;;;;;6.60;4.40;;;;;;;13.32;100.00;100268.19;4957215;28;20119;-79
2022/10/01 07:36:07;;;;;;;5.50;4.57;;;;;;;13.38;100.00;100265.59;4957111;28;20056;-78
2022/10/01 07:38:34;;;;;;;5.53;4.22;;;;;;;13.41;100.00;100264.66;4957348;28;20095;-82
2022/10/01 07:41:02;;;;;;;8.85;4.72;;;;;;;13.47;100.00;100273.47;4957591;28;20048;-79
2022/10/01 07:43:30;;;;;;;6.93;3.88;;;;;;;13.52;100.00;100267.47;4956842;28;20139;-79
2022/10/01 07:45:58;;;;;;;6.13;4.43;;;;;;;13.67;100.00;100268.81;4957218;28;20538;-80
2022/10/01 07:48:26;;;;;;;6.28;3.70;;;;;;;13.69;100.00;100279.03;4956348;28;20048;-78
2022/10/01 07:50:52;;;;;;;9.95;3.75;;;;;;;13.73;100.00;100271.53;4957272;28;20055;-80
2022/10/01 07:53:19;;;;;;;9.60;3.92;;;;;;;13.75;100.00;100271.81;4957114;28;20501;-78
2022/10/01 07:55:45;;;;;;;6.75;3.90;;;;;;;13.80;100.00;100275.75;4956947;28;20515;-77
2022/10/01 07:58:12;;;;;;;3.85;3.35;;;;;;;13.93;100.00;100284.88;4957198;28;20491;-83
2022/10/01 08:00:39;;;;;;;4.82;3.88;;;;;;;14.06;100.00;100279.13;4957354;28;20477;-87
2022/10/01 08:03:05;;;;;;;9.02;3.95;;;;;;;14.34;100.00;100292.75;4956643;28;20054;-86
2022/10/01 08:05:34;;;;;;;6.93;3.70;;;;;;;14.54;100.00;100294.63;4957192;28;20130;-79
2022/10/01 08:08:04;;;;;;;3.92;3.53;;;;;;;14.38;100.00;100295.22;4957324;28;20123;-80
2022/10/01 08:10:35;;;;;;;4.88;3.35;;;;;;;14.23;100.00;100296.06;4956468;28;20664;-78
2022/10/01 08:13:13;;;;;;;5.70;3.60;;;;;;;14.13;100.00;100300.13;4957193;28;20054;-78
2022/10/01 08:15:41;;;;;;;3.53;3.22;;;;;;;14.07;100.00;100298.59;4956632;28;20054;-79
2022/10/01 08:18:08;;;;;;;6.13;3.53;;;;;;;13.94;100.00;100302.41;4954866;28;20507;-79
2022/10/01 08:20:35;;;;;;;7.18;3.53;;;;;;;13.92;100.00;100301.41;4956695;28;20054;-79
2022/10/01 08:23:04;;;;;;;7.28;3.28;;;;;;;13.90;100.00;100306.50;4956697;28;20046;-79
2022/10/01 08:25:30;;;;;;;3.65;3.03;;;;;;;13.92;100.00;100314.78;4956754;28;20050;-79
2022/10/01 08:27:56;;;;;;;5.35;3.05;;;;;;;13.92;100.00;100322.81;4956630;28;20134;-79
2022/10/01 08:30:24;;;;;;;7.95;3.50;;;;;;;13.84;100.00;100317.13;4956484;28;20052;-79
2022/10/01 08:32:55;;;;;;;7.38;2.60;;;;;;;13.81;100.00;100320.75;4956002;28;20047;-79
2022/10/01 08:35:23;;;;;;;3.83;2.88;;;;;;;13.79;100.00;100322.44;4956262;28;20143;-79
2022/10/01 08:37:49;;;;;;;6.07;3.13;;;;;;;13.80;100.00;100323.91;4955991;28;20062;-79
2022/10/01 08:40:19;;;;;;;6.07;3.03;;;;;;;13.84;100.00;100324.44;4956770;28;20857;-79
2022/10/01 08:42:58;;;;;;;5.70;2.90;;;;;;;14.03;100.00;100328.97;4954973;28;20521;-79
2022/10/01 08:45:46;;;;;;;5.97;3.28;;;;;;;14.40;100.00;100325.66;4956711;28;20122;-80
2022/10/01 08:48:28;;;;;;;4.75;3.25;;;;;;;14.50;100.00;100334.28;4956554;28;20560;-79
2022/10/01 08:51:03;;;;;;;7.63;2.97;;;;;;;14.41;100.00;100342.44;4956360;28;20131;-86
2022/10/01 08:53:39;;;;;;;7.07;2.70;;;;;;;14.57;100.00;100345.28;4956476;28;20050;-85
2022/10/01 08:56:23;;;;;;;4.18;2.10;;;;;;;14.67;99.99;100351.22;4955589;28;20500;-89
2022/10/01 08:58:57;;;;;;;6.05;2.10;;;;;;;14.51;99.41;100352.53;4956164;28;20123;-84
2022/10/01 09:01:25;;;;;;;5.15;1.90;;;;;;;14.49;98.93;100356.91;4955882;28;20074;-82
2022/10/01 09:03:52;;;;;;;1.90;1.67;;;;;;;14.61;98.93;100359.19;4954605;28;20495;-81
2022/10/01 09:06:24;;;;;;;4.82;2.00;;;;;;;14.70;99.34;100357.56;4956145;28;20048;-81
2022/10/01 09:08:56;;;;;;;5.07;2.10;;;;;;;14.95;99.59;100365.50;4956127;28;20475;-81
2022/10/01 09:11:46;;;;;;;4.57;2.10;;;;;;;15.05;98.38;100366.06;4956217;28;20093;-80
2022/10/01 09:14:29;;;;;;;5.85;2.10;;;;;;;15.32;98.87;100367.41;4954305;28;20519;-81
2022/10/01 09:17:18;;;;;;;6.47;2.13;;;;;;;15.45;97.78;100367.72;4954402;28;20584;-81
2022/10/01 09:20:21;;;;;;;6.88;2.10;;;;;;;15.54;95.67;100367.53;4955521;28;20590;-81
2022/10/01 09:23:03;;;;;;;8.93;2.13;;;;;;;15.61;96.30;100377.06;4955457;28;20058;-81
2022/10/01 09:25:30;;;;;;;5.90;1.83;;;;;;;15.76;95.88;100371.50;4955366;28;20131;-82
2022/10/01 09:28:10;;;;;;;7.78;2.35;;;;;;;15.94;96.11;100384.50;4955605;28;20473;-81
2022/10/01 09:30:42;;;;;;;4.72;1.60;;;;;;;16.05;95.68;100381.81;4954125;28;20054;-81
2022/10/01 09:33:16;;;;;;;4.28;2.28;;;;;;;16.19;95.12;100383.56;4955822;28;20058;-81
2022/10/01 09:36:03;;;;;;;6.30;2.00;;;;;;;16.20;93.66;100376.97;4956176;28;20083;-82
2022/10/01 09:38:47;;;;;;;5.65;1.67;;;;;;;15.86;92.52;100388.88;4954884;28;20131;-85
2022/10/01 09:41:14;;;;;;;6.38;1.85;;;;;;;15.80;92.77;100388.13;4954402;28;20040;-82
2022/10/01 09:43:43;;;;;;;10.95;2.40;;;;;;;15.74;91.00;100392.72;4954608;28;20048;-82
2022/10/01 09:46:15;;;;;;;4.93;1.48;;;;;;;15.57;89.48;100393.41;4955187;28;20051;-82
2022/10/01 09:49:10;;;;;;;7.68;1.95;;;;;;;15.56;91.38;100400.00;4955351;28;20044;-82
2022/10/01 09:51:43;;;;;;;12.00;2.10;;;;;;;15.69;89.11;100404.91;4955414;28;20058;-83
2022/10/01 09:54:22;;;;;;;11.52;2.03;;;;;;;15.88;90.01;100405.97;4955255;28;20047;-83
2022/10/01 09:56:59;;;;;;;10.60;2.05;;;;;;;15.98;88.50;100396.47;4954033;28;20138;-83
2022/10/01 09:59:33;;;;;;;9.00;1.63;;;;;;;16.16;87.45;100403.34;4953419;28;20592;-83
2022/10/01 10:02:02;;;;;;;20.08;2.13;;;;;;;16.34;88.17;100407.53;4953670;28;20058;-83
2022/10/01 10:04:29;;;;;;;7.97;2.33;;;;;;;16.36;87.88;100413.13;4953559;28;20134;-80
2022/10/01 10:07:04;;;;;;;10.55;1.70;;;;;;;16.01;86.87;100413.53;4953728;28;20059;-80
2022/10/01 10:09:33;;;;;;;7.72;1.50;;;;;;;15.80;88.83;100436.44;4953894;28;20139;-82
2022/10/01 10:12:01;;;;;;;6.95;2.00;;;;;;;15.57;88.88;100438.28;4954441;28;20541;-81
2022/10/01 10:14:31;;;;;;;7.07;2.40;;;;;;;15.31;88.00;100435.66;4954799;28;20054;-82
2022/10/01 10:17:04;;;;;;;7.65;1.70;;;;;;;15.26;89.38;100450.50;4954721;28;20587;-82
2022/10/01 10:19:32;;;;;;;6.63;1.77;;;;;;;15.41;89.11;100446.94;4954975;28;20556;-83
2022/10/01 10:22:22;;;;;;;10.23;1.70;;;;;;;15.60;88.54;100456.81;4954909;28;20047;-79
2022/10/01 10:24:48;;;;;;;7.88;1.80;;;;;;;15.72;88.30;100456.88;4955132;28;20531;-82
2022/10/01 10:27:25;;;;;;;13.48;2.47;;;;;;;15.73;88.25;100458.34;4954426;28;20130;-80
2022/10/01 10:30:05;;;;;;;7.97;1.80;;;;;;;15.64;87.52;100461.97;4953836;28;20063;-80
2022/10/01 10:32:32;;;;;;;10.52;2.63;;;;;;;15.50;86.78;100468.94;4953645;28;20044;-81
2022/10/01 10:35:04;;;;;;;7.40;1.98;;;;;;;15.51;88.02;100472.38;4953028;28;20050;-81
2022/10/01 10:37:35;;;;;;;7.03;1.65;;;;;;;15.64;86.76;100486.84;4954368;28;20087;-83
2022/10/01 10:40:06;;;;;;;11.88;2.10;;;;;;;15.72;86.18;100483.72;4954544;28;20079;-86
2022/10/01 10:42:37;;;;;;;5.32;1.75;;;;;;;15.80;83.98;100492.78;4953823;28;20111;-85
2022/10/01 10:45:16;;;;;;;8.80;1.90;;;;;;;15.79;84.89;100496.69;4955548;28;20059;-79
2022/10/01 10:47:45;;;;;;;8.77;1.55;;;;;;;15.82;83.72;100498.41;4953577;28;20075;-83
2022/10/01 10:50:28;;;;;;;8.55;2.10;;;;;;;15.93;83.55;100493.84;4954648;28;20456;-82
2022/10/01 10:52:56;;;;;;;7.85;1.90;;;;;;;15.93;82.13;100501.16;4953689;28;20146;-82
2022/10/01 10:55:27;;;;;;;8.52;1.60;;;;;;;16.01;83.16;100502.88;4954853;28;20072;-83
2022/10/01 10:57:54;;;;;;;9.10;2.80;;;;;;;16.15;83.53;100508.53;4957348;28;20054;-82
2022/10/01 11:00:25;;;;;;;8.30;2.05;;;;;;;16.31;80.32;100507.88;4957719;28;20054;-80
2022/10/01 11:03:03;;;;;;;10.85;1.70;;;;;;;16.31;79.53;100516.66;4957771;28;20068;-81
2022/10/01 11:05:31;;;;;;;6.07;1.75;;;;;;;16.00;79.55;100538.25;4960103;28;20058;-80
2022/10/01 11:08:02;;;;;;;4.53;1.50;;;;;;;15.85;78.91;100538.44;4959385;28;20079;-79
2022/10/01 11:10:31;;;;;;;7.93;1.88;;;;;;;15.89;79.92;100530.91;4958566;28;20054;-82
2022/10/01 11:13:19;;;;;;;6.95;1.73;;;;;;;15.97;79.02;100536.56;4957192;28;20600;-85
2022/10/01 11:16:18;;;;;;;9.32;2.58;;;;;;;16.12;81.11;100534.41;4957885;28;20487;-83
2022/10/01 11:18:57;;;;;;;7.80;1.60;;;;;;;16.39;79.82;100548.44;4957390;28;20066;-86
2022/10/01 11:21:40;;;;;;;9.45;1.90;;;;;;;16.49;77.53;100542.34;4956533;28;20050;-83
2022/10/01 11:24:48;;;;;;;11.35;2.03;;;;;;;16.55;77.70;100542.34;4957506;28;20127;-80
2022/10/01 11:27:26;;;;;;;7.15;1.83;;;;;;;16.51;78.64;100560.66;4957150;28;20490;-80
2022/10/01 11:30:09;;;;;;;8.10;1.80;;;;;;;16.38;78.22;100571.16;4957553;28;20062;-79
2022/10/01 11:32:47;;;;;;;6.28;1.80;;;;;;;16.13;79.44;100584.22;4957824;28;20121;-80
2022/10/01 11:35:24;;;;;;;10.38;2.30;;;;;;;15.86;79.24;100592.88;4956160;28;20502;-81
2022/10/01 11:38:12;;;;;;;6.68;1.70;;;;;;;15.85;81.08;100583.34;4956793;28;20066;-81
2022/10/01 11:40:41;;;;;;;10.13;2.03;;;;;;;15.85;80.40;100584.06;4957401;28;20048;-81